sensor_id;sensor_type;location;lat;lon;timestamp;P1;durP1;ratioP1;P2;durP2;ratioP2
45836;SDS011;31548;51.420;-0.040;2023-02-02T00:01:27;16.48;;;1.25;;
45836;SDS011;31548;51.420;-0.040;2023-02-02T00:03:55;17.88;;;2.03;;
45836;SDS011;31548;51.420;-0.040;2023-02-02T00:06:24;18.25;;;1.65;;
45836;SDS011;31548;51.420;-0.040;2023-02-02T00:08:54;22.08;;;2.08;;
45836;SDS011;31548;51.420;-0.040;2023-02-02T00:11:23;15.15;;;1.33;;
45836;SDS011;31548;51.420;-0.040;2023-02-02T00:13:51;18.27;;;1.42;;
45836;SDS011;31548;51.420;-0.040;2023-02-02T00:18:52;9.63;;;1.50;;
45836;SDS011;31548;51.420;-0.040;2023-02-02T00:21:22;11.52;;;1.20;;
45836;SDS011;31548;51.420;-0.040;2023-02-02T00:23:49;14.85;;;1.08;;
45836;SDS011;31548;51.420;-0.040;2023-02-02T00:26:17;20.75;;;2.55;;
45836;SDS011;31548;51.420;-0.040;2023-02-02T00:28:45;16.75;;;1.23;;
45836;SDS011;31548;51.420;-0.040;2023-02-02T00:31:13;11.75;;;2.15;;
45836;SDS011;31548;51.420;-0.040;2023-02-02T00:33:44;15.60;;;1.17;;
45836;SDS011;31548;51.420;-0.040;2023-02-02T00:36:12;20.92;;;1.70;;
45836;SDS011;31548;51.420;-0.040;2023-02-02T00:38:40;17.33;;;1.48;;
45836;SDS011;31548;51.420;-0.040;2023-02-02T00:41:07;11.07;;;1.08;;
45836;SDS011;31548;51.420;-0.040;2023-02-02T00:43:34;15.68;;;1.67;;
45836;SDS011;31548;51.420;-0.040;2023-02-02T00:46:02;12.23;;;1.95;;
45836;SDS011;31548;51.420;-0.040;2023-02-02T00:48:29;12.02;;;1.05;;
45836;SDS011;31548;51.420;-0.040;2023-02-02T00:50:56;14.18;;;1.52;;
45836;SDS011;31548;51.420;-0.040;2023-02-02T00:53:23;14.32;;;1.73;;
45836;SDS011;31548;51.420;-0.040;2023-02-02T00:55:51;11.43;;;1.23;;
45836;SDS011;31548;51.420;-0.040;2023-02-02T00:58:18;18.45;;;1.30;;
45836;SDS011;31548;51.420;-0.040;2023-02-02T01:00:46;12.18;;;1.33;;
45836;SDS011;31548;51.420;-0.040;2023-02-02T01:03:13;17.13;;;1.45;;
45836;SDS011;31548;51.420;-0.040;2023-02-02T01:05:41;11.15;;;0.90;;
45836;SDS011;31548;51.420;-0.040;2023-02-02T01:08:09;16.13;;;1.77;;
45836;SDS011;31548;51.420;-0.040;2023-02-02T01:10:36;19.33;;;1.50;;
45836;SDS011;31548;51.420;-0.040;2023-02-02T01:13:03;12.55;;;0.95;;
45836;SDS011;31548;51.420;-0.040;2023-02-02T01:15:30;13.98;;;0.98;;
45836;SDS011;31548;51.420;-0.040;2023-02-02T01:17:58;10.05;;;1.27;;
45836;SDS011;31548;51.420;-0.040;2023-02-02T01:20:25;19.23;;;1.65;;
45836;SDS011;31548;51.420;-0.040;2023-02-02T01:22:52;15.85;;;1.38;;
45836;SDS011;31548;51.420;-0.040;2023-02-02T01:25:19;6.65;;;0.80;;
45836;SDS011;31548;51.420;-0.040;2023-02-02T01:27:46;15.05;;;1.05;;
45836;SDS011;31548;51.420;-0.040;2023-02-02T01:30:14;12.70;;;1.40;;
45836;SDS011;31548;51.420;-0.040;2023-02-02T01:32:41;13.57;;;1.30;;
45836;SDS011;31548;51.420;-0.040;2023-02-02T01:35:08;16.70;;;0.80;;
45836;SDS011;31548;51.420;-0.040;2023-02-02T01:37:37;10.73;;;0.98;;
45836;SDS011;31548;51.420;-0.040;2023-02-02T01:40:04;13.82;;;1.20;;
45836;SDS011;31548;51.420;-0.040;2023-02-02T01:42:32;11.70;;;1.30;;
45836;SDS011;31548;51.420;-0.040;2023-02-02T01:47:34;13.95;;;1.00;;
45836;SDS011;31548;51.420;-0.040;2023-02-02T01:50:08;6.75;;;1.17;;
45836;SDS011;31548;51.420;-0.040;2023-02-02T01:52:37;12.73;;;1.35;;
45836;SDS011;31548;51.420;-0.040;2023-02-02T01:55:07;10.98;;;0.93;;
45836;SDS011;31548;51.420;-0.040;2023-02-02T01:57:41;12.32;;;1.02;;
45836;SDS011;31548;51.420;-0.040;2023-02-02T02:00:16;9.80;;;0.93;;
45836;SDS011;31548;51.420;-0.040;2023-02-02T02:02:51;7.47;;;0.80;;
45836;SDS011;31548;51.420;-0.040;2023-02-02T02:05:23;13.82;;;1.33;;
45836;SDS011;31548;51.420;-0.040;2023-02-02T02:07:55;13.60;;;1.77;;
45836;SDS011;31548;51.420;-0.040;2023-02-02T02:10:28;11.68;;;0.85;;
45836;SDS011;31548;51.420;-0.040;2023-02-02T02:12:56;5.45;;;0.80;;
45836;SDS011;31548;51.420;-0.040;2023-02-02T02:15:24;8.45;;;0.85;;
45836;SDS011;31548;51.420;-0.040;2023-02-02T02:27:55;8.80;;;1.00;;
45836;SDS011;31548;51.420;-0.040;2023-02-02T02:42:01;6.18;;;0.90;;
45836;SDS011;31548;51.420;-0.040;2023-02-02T02:44:33;12.90;;;1.15;;
45836;SDS011;31548;51.420;-0.040;2023-02-02T02:47:02;12.05;;;2.85;;
45836;SDS011;31548;51.420;-0.040;2023-02-02T02:49:30;12.50;;;1.80;;
45836;SDS011;31548;51.420;-0.040;2023-02-02T02:51:57;12.27;;;1.23;;
45836;SDS011;31548;51.420;-0.040;2023-02-02T03:07:47;8.57;;;0.80;;
45836;SDS011;31548;51.420;-0.040;2023-02-02T03:10:21;15.25;;;1.70;;
45836;SDS011;31548;51.420;-0.040;2023-02-02T03:12:52;10.05;;;1.05;;
45836;SDS011;31548;51.420;-0.040;2023-02-02T03:15:20;15.10;;;1.13;;
45836;SDS011;31548;51.420;-0.040;2023-02-02T03:17:49;10.27;;;1.25;;
45836;SDS011;31548;51.420;-0.040;2023-02-02T03:20:19;9.98;;;0.95;;
45836;SDS011;31548;51.420;-0.040;2023-02-02T03:22:46;7.95;;;0.70;;
45836;SDS011;31548;51.420;-0.040;2023-02-02T03:25:14;9.50;;;1.30;;
45836;SDS011;31548;51.420;-0.040;2023-02-02T03:27:41;10.45;;;1.08;;
45836;SDS011;31548;51.420;-0.040;2023-02-02T03:30:10;9.98;;;0.98;;
45836;SDS011;31548;51.420;-0.040;2023-02-02T03:32:39;10.30;;;1.33;;
45836;SDS011;31548;51.420;-0.040;2023-02-02T03:35:07;8.13;;;0.70;;
45836;SDS011;31548;51.420;-0.040;2023-02-02T03:37:34;16.95;;;1.20;;
45836;SDS011;31548;51.420;-0.040;2023-02-02T03:40:02;7.38;;;1.20;;
45836;SDS011;31548;51.420;-0.040;2023-02-02T03:42:30;7.85;;;1.08;;
45836;SDS011;31548;51.420;-0.040;2023-02-02T03:44:57;7.47;;;1.20;;
45836;SDS011;31548;51.420;-0.040;2023-02-02T03:47:27;7.03;;;1.02;;
45836;SDS011;31548;51.420;-0.040;2023-02-02T03:49:55;8.90;;;1.25;;
45836;SDS011;31548;51.420;-0.040;2023-02-02T03:52:24;6.65;;;0.60;;
45836;SDS011;31548;51.420;-0.040;2023-02-02T03:54:51;9.82;;;0.98;;
45836;SDS011;31548;51.420;-0.040;2023-02-02T03:57:18;13.70;;;0.88;;
45836;SDS011;31548;51.420;-0.040;2023-02-02T03:59:46;14.65;;;1.00;;
45836;SDS011;31548;51.420;-0.040;2023-02-02T04:02:13;8.30;;;0.90;;
45836;SDS011;31548;51.420;-0.040;2023-02-02T04:04:40;15.48;;;0.80;;
45836;SDS011;31548;51.420;-0.040;2023-02-02T04:07:07;10.65;;;0.88;;
45836;SDS011;31548;51.420;-0.040;2023-02-02T04:09:34;12.40;;;0.98;;
45836;SDS011;31548;51.420;-0.040;2023-02-02T04:12:02;9.82;;;0.90;;
45836;SDS011;31548;51.420;-0.040;2023-02-02T04:14:29;8.88;;;1.13;;
45836;SDS011;31548;51.420;-0.040;2023-02-02T04:16:56;10.73;;;0.98;;
45836;SDS011;31548;51.420;-0.040;2023-02-02T04:19:23;7.55;;;0.90;;
45836;SDS011;31548;51.420;-0.040;2023-02-02T04:21:51;6.68;;;0.80;;
45836;SDS011;31548;51.420;-0.040;2023-02-02T04:24:19;10.52;;;0.98;;
45836;SDS011;31548;51.420;-0.040;2023-02-02T04:26:46;10.85;;;1.45;;
45836;SDS011;31548;51.420;-0.040;2023-02-02T04:29:13;15.05;;;1.63;;
45836;SDS011;31548;51.420;-0.040;2023-02-02T04:31:40;12.23;;;1.58;;
45836;SDS011;31548;51.420;-0.040;2023-02-02T04:34:08;10.23;;;1.00;;
45836;SDS011;31548;51.420;-0.040;2023-02-02T04:36:35;13.10;;;1.23;;
45836;SDS011;31548;51.420;-0.040;2023-02-02T04:39:02;17.58;;;1.27;;
45836;SDS011;31548;51.420;-0.040;2023-02-02T04:41:29;20.52;;;1.02;;
45836;SDS011;31548;51.420;-0.040;2023-02-02T04:43:57;14.90;;;1.75;;
45836;SDS011;31548;51.420;-0.040;2023-02-02T04:46:24;9.27;;;1.23;;
45836;SDS011;31548;51.420;-0.040;2023-02-02T04:48:52;6.85;;;0.90;;
45836;SDS011;31548;51.420;-0.040;2023-02-02T04:51:19;8.63;;;1.17;;
45836;SDS011;31548;51.420;-0.040;2023-02-02T04:53:46;16.67;;;1.85;;
45836;SDS011;31548;51.420;-0.040;2023-02-02T04:56:14;12.35;;;1.40;;
45836;SDS011;31548;51.420;-0.040;2023-02-02T04:58:43;12.05;;;0.90;;
45836;SDS011;31548;51.420;-0.040;2023-02-02T05:01:12;8.82;;;0.80;;
45836;SDS011;31548;51.420;-0.040;2023-02-02T05:03:42;13.75;;;1.20;;
45836;SDS011;31548;51.420;-0.040;2023-02-02T05:06:09;8.05;;;0.93;;
45836;SDS011;31548;51.420;-0.040;2023-02-02T05:08:38;10.10;;;0.95;;
45836;SDS011;31548;51.420;-0.040;2023-02-02T05:11:06;13.85;;;1.58;;
45836;SDS011;31548;51.420;-0.040;2023-02-02T05:13:34;8.60;;;0.70;;
45836;SDS011;31548;51.420;-0.040;2023-02-02T05:16:02;9.23;;;1.33;;
45836;SDS011;31548;51.420;-0.040;2023-02-02T05:18:29;6.93;;;1.05;;
45836;SDS011;31548;51.420;-0.040;2023-02-02T05:21:00;7.43;;;1.05;;
45836;SDS011;31548;51.420;-0.040;2023-02-02T05:23:29;6.53;;;1.05;;
45836;SDS011;31548;51.420;-0.040;2023-02-02T05:25:56;16.63;;;1.23;;
45836;SDS011;31548;51.420;-0.040;2023-02-02T05:28:23;12.27;;;1.35;;
45836;SDS011;31548;51.420;-0.040;2023-02-02T05:30:51;5.82;;;0.70;;
45836;SDS011;31548;51.420;-0.040;2023-02-02T05:33:18;16.80;;;1.10;;
45836;SDS011;31548;51.420;-0.040;2023-02-02T05:35:48;6.40;;;0.65;;
45836;SDS011;31548;51.420;-0.040;2023-02-02T05:38:17;5.03;;;1.25;;
45836;SDS011;31548;51.420;-0.040;2023-02-02T05:40:44;9.77;;;2.50;;
45836;SDS011;31548;51.420;-0.040;2023-02-02T05:43:14;16.08;;;1.45;;
45836;SDS011;31548;51.420;-0.040;2023-02-02T05:45:41;10.45;;;0.73;;
45836;SDS011;31548;51.420;-0.040;2023-02-02T05:48:11;9.45;;;0.98;;
45836;SDS011;31548;51.420;-0.040;2023-02-02T05:50:42;10.10;;;0.60;;
45836;SDS011;31548;51.420;-0.040;2023-02-02T05:53:30;11.05;;;0.98;;
45836;SDS011;31548;51.420;-0.040;2023-02-02T05:55:58;6.35;;;1.35;;
45836;SDS011;31548;51.420;-0.040;2023-02-02T05:58:25;13.43;;;1.60;;
45836;SDS011;31548;51.420;-0.040;2023-02-02T06:00:53;6.50;;;0.90;;
45836;SDS011;31548;51.420;-0.040;2023-02-02T06:03:22;9.98;;;1.00;;
45836;SDS011;31548;51.420;-0.040;2023-02-02T06:05:49;5.20;;;0.82;;
45836;SDS011;31548;51.420;-0.040;2023-02-02T06:08:17;7.65;;;0.98;;
45836;SDS011;31548;51.420;-0.040;2023-02-02T06:10:44;5.80;;;0.68;;
45836;SDS011;31548;51.420;-0.040;2023-02-02T06:13:11;11.77;;;1.00;;
45836;SDS011;31548;51.420;-0.040;2023-02-02T06:15:38;13.02;;;1.65;;
45836;SDS011;31548;51.420;-0.040;2023-02-02T06:18:08;10.07;;;1.15;;
45836;SDS011;31548;51.420;-0.040;2023-02-02T06:20:36;10.15;;;0.77;;
45836;SDS011;31548;51.420;-0.040;2023-02-02T06:23:03;8.85;;;0.93;;
45836;SDS011;31548;51.420;-0.040;2023-02-02T06:25:31;17.13;;;1.25;;
45836;SDS011;31548;51.420;-0.040;2023-02-02T06:27:59;14.90;;;1.75;;
45836;SDS011;31548;51.420;-0.040;2023-02-02T06:30:27;8.85;;;1.00;;
45836;SDS011;31548;51.420;-0.040;2023-02-02T06:32:54;5.70;;;0.80;;
45836;SDS011;31548;51.420;-0.040;2023-02-02T06:35:24;11.38;;;1.27;;
45836;SDS011;31548;51.420;-0.040;2023-02-02T06:37:52;10.88;;;1.35;;
45836;SDS011;31548;51.420;-0.040;2023-02-02T06:40:19;10.60;;;0.88;;
45836;SDS011;31548;51.420;-0.040;2023-02-02T06:42:46;7.55;;;1.00;;
45836;SDS011;31548;51.420;-0.040;2023-02-02T06:45:14;6.50;;;0.73;;
45836;SDS011;31548;51.420;-0.040;2023-02-02T06:47:41;5.50;;;0.85;;
45836;SDS011;31548;51.420;-0.040;2023-02-02T06:50:08;7.18;;;0.80;;
45836;SDS011;31548;51.420;-0.040;2023-02-02T06:52:36;7.55;;;0.90;;
45836;SDS011;31548;51.420;-0.040;2023-02-02T06:55:03;7.00;;;0.77;;
45836;SDS011;31548;51.420;-0.040;2023-02-02T06:57:31;9.70;;;0.75;;
45836;SDS011;31548;51.420;-0.040;2023-02-02T06:59:58;8.30;;;0.90;;
45836;SDS011;31548;51.420;-0.040;2023-02-02T07:02:25;5.85;;;0.68;;
45836;SDS011;31548;51.420;-0.040;2023-02-02T07:04:52;4.88;;;0.60;;
45836;SDS011;31548;51.420;-0.040;2023-02-02T07:07:19;12.63;;;1.00;;
45836;SDS011;31548;51.420;-0.040;2023-02-02T07:09:47;5.97;;;0.60;;
45836;SDS011;31548;51.420;-0.040;2023-02-02T07:12:24;8.02;;;0.93;;
45836;SDS011;31548;51.420;-0.040;2023-02-02T07:14:52;11.13;;;0.60;;
45836;SDS011;31548;51.420;-0.040;2023-02-02T07:17:20;9.57;;;0.90;;
45836;SDS011;31548;51.420;-0.040;2023-02-02T07:19:47;7.65;;;0.80;;
45836;SDS011;31548;51.420;-0.040;2023-02-02T07:22:14;4.78;;;0.60;;
45836;SDS011;31548;51.420;-0.040;2023-02-02T07:24:41;5.30;;;0.68;;
45836;SDS011;31548;51.420;-0.040;2023-02-02T07:27:08;3.50;;;0.98;;
45836;SDS011;31548;51.420;-0.040;2023-02-02T07:29:35;3.10;;;0.70;;
45836;SDS011;31548;51.420;-0.040;2023-02-02T07:32:03;8.40;;;1.15;;
45836;SDS011;31548;51.420;-0.040;2023-02-02T07:34:30;13.45;;;0.93;;
45836;SDS011;31548;51.420;-0.040;2023-02-02T07:36:57;8.63;;;1.05;;
45836;SDS011;31548;51.420;-0.040;2023-02-02T07:39:25;9.43;;;0.90;;
45836;SDS011;31548;51.420;-0.040;2023-02-02T07:41:52;14.40;;;1.15;;
45836;SDS011;31548;51.420;-0.040;2023-02-02T07:44:29;8.60;;;1.83;;
45836;SDS011;31548;51.420;-0.040;2023-02-02T07:46:57;11.57;;;1.17;;
45836;SDS011;31548;51.420;-0.040;2023-02-02T07:49:24;13.75;;;1.67;;
45836;SDS011;31548;51.420;-0.040;2023-02-02T07:51:51;16.90;;;1.13;;
45836;SDS011;31548;51.420;-0.040;2023-02-02T07:54:18;11.38;;;0.90;;
45836;SDS011;31548;51.420;-0.040;2023-02-02T07:56:46;10.70;;;0.95;;
45836;SDS011;31548;51.420;-0.040;2023-02-02T07:59:13;13.73;;;1.20;;
45836;SDS011;31548;51.420;-0.040;2023-02-02T08:01:40;9.27;;;1.95;;
45836;SDS011;31548;51.420;-0.040;2023-02-02T08:04:08;5.97;;;1.00;;
45836;SDS011;31548;51.420;-0.040;2023-02-02T08:06:36;5.43;;;0.80;;
45836;SDS011;31548;51.420;-0.040;2023-02-02T08:09:05;7.20;;;1.00;;
45836;SDS011;31548;51.420;-0.040;2023-02-02T08:11:34;9.27;;;1.15;;
45836;SDS011;31548;51.420;-0.040;2023-02-02T08:14:03;14.52;;;0.82;;
45836;SDS011;31548;51.420;-0.040;2023-02-02T08:16:31;12.13;;;0.90;;
45836;SDS011;31548;51.420;-0.040;2023-02-02T08:18:59;9.70;;;0.88;;
45836;SDS011;31548;51.420;-0.040;2023-02-02T08:21:27;7.72;;;0.65;;
45836;SDS011;31548;51.420;-0.040;2023-02-02T08:23:54;7.13;;;1.10;;
45836;SDS011;31548;51.420;-0.040;2023-02-02T08:26:26;17.20;;;1.02;;
45836;SDS011;31548;51.420;-0.040;2023-02-02T08:28:56;12.57;;;1.25;;
45836;SDS011;31548;51.420;-0.040;2023-02-02T08:33:55;13.23;;;1.05;;
45836;SDS011;31548;51.420;-0.040;2023-02-02T08:36:25;7.43;;;0.70;;
45836;SDS011;31548;51.420;-0.040;2023-02-02T08:38:53;8.25;;;0.60;;
45836;SDS011;31548;51.420;-0.040;2023-02-02T08:41:22;5.10;;;0.60;;
45836;SDS011;31548;51.420;-0.040;2023-02-02T08:43:50;5.60;;;0.60;;
45836;SDS011;31548;51.420;-0.040;2023-02-02T08:46:18;7.13;;;0.70;;
45836;SDS011;31548;51.420;-0.040;2023-02-02T08:48:47;5.35;;;0.75;;
45836;SDS011;31548;51.420;-0.040;2023-02-02T08:51:16;6.85;;;0.90;;
45836;SDS011;31548;51.420;-0.040;2023-02-02T08:53:44;9.88;;;0.70;;
45836;SDS011;31548;51.420;-0.040;2023-02-02T08:56:13;8.27;;;2.33;;
45836;SDS011;31548;51.420;-0.040;2023-02-02T08:58:45;10.68;;;0.95;;
45836;SDS011;31548;51.420;-0.040;2023-02-02T09:01:16;9.85;;;0.80;;
45836;SDS011;31548;51.420;-0.040;2023-02-02T09:03:52;6.75;;;0.60;;
45836;SDS011;31548;51.420;-0.040;2023-02-02T09:06:20;13.35;;;0.82;;
45836;SDS011;31548;51.420;-0.040;2023-02-02T09:08:51;6.38;;;0.77;;
45836;SDS011;31548;51.420;-0.040;2023-02-02T09:11:19;8.63;;;0.80;;
45836;SDS011;31548;51.420;-0.040;2023-02-02T09:13:47;6.45;;;0.80;;
45836;SDS011;31548;51.420;-0.040;2023-02-02T09:16:16;6.88;;;0.80;;
45836;SDS011;31548;51.420;-0.040;2023-02-02T09:18:44;8.98;;;1.08;;
45836;SDS011;31548;51.420;-0.040;2023-02-02T09:21:12;5.20;;;0.70;;
45836;SDS011;31548;51.420;-0.040;2023-02-02T09:23:41;5.57;;;0.80;;
45836;SDS011;31548;51.420;-0.040;2023-02-02T09:26:14;10.00;;;1.33;;
45836;SDS011;31548;51.420;-0.040;2023-02-02T09:28:48;6.60;;;0.82;;
45836;SDS011;31548;51.420;-0.040;2023-02-02T09:31:18;8.13;;;0.88;;
45836;SDS011;31548;51.420;-0.040;2023-02-02T09:33:46;11.15;;;0.60;;
45836;SDS011;31548;51.420;-0.040;2023-02-02T09:36:17;13.90;;;0.75;;
45836;SDS011;31548;51.420;-0.040;2023-02-02T09:38:46;11.73;;;1.02;;
45836;SDS011;31548;51.420;-0.040;2023-02-02T09:52:38;2.70;;;0.50;;
45836;SDS011;31548;51.420;-0.040;2023-02-02T09:55:15;5.10;;;0.63;;
45836;SDS011;31548;51.420;-0.040;2023-02-02T10:00:45;5.72;;;0.75;;
45836;SDS011;31548;51.420;-0.040;2023-02-02T10:03:23;4.95;;;0.70;;
45836;SDS011;31548;51.420;-0.040;2023-02-02T10:06:02;7.85;;;0.90;;
45836;SDS011;31548;51.420;-0.040;2023-02-02T10:08:54;6.40;;;0.95;;
45836;SDS011;31548;51.420;-0.040;2023-02-02T10:17:03;2.70;;;0.73;;
45836;SDS011;31548;51.420;-0.040;2023-02-02T10:19:48;8.95;;;0.80;;
45836;SDS011;31548;51.420;-0.040;2023-02-02T10:22:19;6.95;;;1.20;;
45836;SDS011;31548;51.420;-0.040;2023-02-02T10:24:49;2.75;;;0.70;;
45836;SDS011;31548;51.420;-0.040;2023-02-02T10:27:19;2.88;;;0.80;;
45836;SDS011;31548;51.420;-0.040;2023-02-02T10:29:58;5.40;;;0.90;;
45836;SDS011;31548;51.420;-0.040;2023-02-02T10:32:28;3.13;;;0.50;;
45836;SDS011;31548;51.420;-0.040;2023-02-02T10:38:02;9.43;;;1.25;;
45836;SDS011;31548;51.420;-0.040;2023-02-02T10:43:34;6.30;;;1.00;;
45836;SDS011;31548;51.420;-0.040;2023-02-02T10:49:08;3.83;;;0.70;;
45836;SDS011;31548;51.420;-0.040;2023-02-02T10:51:37;1.60;;;0.40;;
45836;SDS011;31548;51.420;-0.040;2023-02-02T10:54:09;4.68;;;0.60;;
45836;SDS011;31548;51.420;-0.040;2023-02-02T11:00:24;6.18;;;1.40;;
45836;SDS011;31548;51.420;-0.040;2023-02-02T11:03:09;5.97;;;0.70;;
45836;SDS011;31548;51.420;-0.040;2023-02-02T11:05:39;4.03;;;1.23;;
45836;SDS011;31548;51.420;-0.040;2023-02-02T11:08:35;3.17;;;0.70;;
45836;SDS011;31548;51.420;-0.040;2023-02-02T11:11:17;7.18;;;0.80;;
45836;SDS011;31548;51.420;-0.040;2023-02-02T11:16:19;9.15;;;1.05;;
45836;SDS011;31548;51.420;-0.040;2023-02-02T11:18:48;4.60;;;0.70;;
45836;SDS011;31548;51.420;-0.040;2023-02-02T11:21:20;14.30;;;1.20;;
45836;SDS011;31548;51.420;-0.040;2023-02-02T11:23:51;1.98;;;0.85;;
45836;SDS011;31548;51.420;-0.040;2023-02-02T11:31:54;5.55;;;0.50;;
45836;SDS011;31548;51.420;-0.040;2023-02-02T11:39:39;3.03;;;0.45;;
45836;SDS011;31548;51.420;-0.040;2023-02-02T11:42:41;3.35;;;1.00;;
45836;SDS011;31548;51.420;-0.040;2023-02-02T11:45:01;4.03;;;0.90;;
45836;SDS011;31548;51.420;-0.040;2023-02-02T11:47:30;5.25;;;0.85;;
45836;SDS011;31548;51.420;-0.040;2023-02-02T11:49:59;4.53;;;0.60;;
45836;SDS011;31548;51.420;-0.040;2023-02-02T11:52:31;3.90;;;0.82;;
45836;SDS011;31548;51.420;-0.040;2023-02-02T11:55:00;5.45;;;0.60;;
45836;SDS011;31548;51.420;-0.040;2023-02-02T11:57:34;5.60;;;0.70;;
45836;SDS011;31548;51.420;-0.040;2023-02-02T12:00:15;7.60;;;0.70;;
45836;SDS011;31548;51.420;-0.040;2023-02-02T12:02:53;4.00;;;0.57;;
45836;SDS011;31548;51.420;-0.040;2023-02-02T12:07:49;7.95;;;1.05;;
45836;SDS011;31548;51.420;-0.040;2023-02-02T12:10:23;2.92;;;0.50;;
45836;SDS011;31548;51.420;-0.040;2023-02-02T12:12:56;6.15;;;0.60;;
45836;SDS011;31548;51.420;-0.040;2023-02-02T12:21:37;4.57;;;0.80;;
45836;SDS011;31548;51.420;-0.040;2023-02-02T12:24:42;9.00;;;0.93;;
45836;SDS011;31548;51.420;-0.040;2023-02-02T12:27:40;2.78;;;0.50;;
45836;SDS011;31548;51.420;-0.040;2023-02-02T12:33:43;2.42;;;0.52;;
45836;SDS011;31548;51.420;-0.040;2023-02-02T12:39:32;6.60;;;0.70;;
45836;SDS011;31548;51.420;-0.040;2023-02-02T12:42:32;6.30;;;0.60;;
45836;SDS011;31548;51.420;-0.040;2023-02-02T12:45:11;4.45;;;0.63;;
45836;SDS011;31548;51.420;-0.040;2023-02-02T12:48:03;3.53;;;0.57;;
45836;SDS011;31548;51.420;-0.040;2023-02-02T13:02:25;6.35;;;0.85;;
45836;SDS011;31548;51.420;-0.040;2023-02-02T13:12:52;3.53;;;1.08;;
45836;SDS011;31548;51.420;-0.040;2023-02-02T13:15:26;12.05;;;1.52;;
45836;SDS011;31548;51.420;-0.040;2023-02-02T13:18:00;10.20;;;0.80;;
45836;SDS011;31548;51.420;-0.040;2023-02-02T13:23:22;2.95;;;0.65;;
45836;SDS011;31548;51.420;-0.040;2023-02-02T13:31:32;5.30;;;0.80;;
45836;SDS011;31548;51.420;-0.040;2023-02-02T13:34:18;2.50;;;0.50;;
45836;SDS011;31548;51.420;-0.040;2023-02-02T13:36:52;6.32;;;0.50;;
45836;SDS011;31548;51.420;-0.040;2023-02-02T13:42:44;7.30;;;0.55;;
45836;SDS011;31548;51.420;-0.040;2023-02-02T13:48:04;5.88;;;0.55;;
45836;SDS011;31548;51.420;-0.040;2023-02-02T13:51:05;3.15;;;0.50;;
45836;SDS011;31548;51.420;-0.040;2023-02-02T13:56:10;2.13;;;0.60;;
45836;SDS011;31548;51.420;-0.040;2023-02-02T14:01:45;2.15;;;0.40;;
45836;SDS011;31548;51.420;-0.040;2023-02-02T14:04:22;5.47;;;0.40;;
45836;SDS011;31548;51.420;-0.040;2023-02-02T14:07:00;9.00;;;0.50;;
45836;SDS011;31548;51.420;-0.040;2023-02-02T14:09:31;4.70;;;0.55;;
45836;SDS011;31548;51.420;-0.040;2023-02-02T14:12:02;5.35;;;0.68;;
45836;SDS011;31548;51.420;-0.040;2023-02-02T14:14:32;6.07;;;0.73;;
45836;SDS011;31548;51.420;-0.040;2023-02-02T14:17:03;3.15;;;0.65;;
45836;SDS011;31548;51.420;-0.040;2023-02-02T14:29:36;4.88;;;1.77;;
45836;SDS011;31548;51.420;-0.040;2023-02-02T14:37:53;5.40;;;0.80;;
45836;SDS011;31548;51.420;-0.040;2023-02-02T14:43:32;4.05;;;0.47;;
45836;SDS011;31548;51.420;-0.040;2023-02-02T14:46:35;1.42;;;0.60;;
45836;SDS011;31548;51.420;-0.040;2023-02-02T14:49:05;2.60;;;0.60;;
45836;SDS011;31548;51.420;-0.040;2023-02-02T14:51:43;1.25;;;0.43;;
45836;SDS011;31548;51.420;-0.040;2023-02-02T14:54:23;7.22;;;0.50;;
45836;SDS011;31548;51.420;-0.040;2023-02-02T14:57:22;6.03;;;0.50;;
45836;SDS011;31548;51.420;-0.040;2023-02-02T14:59:54;3.97;;;0.45;;
45836;SDS011;31548;51.420;-0.040;2023-02-02T15:08:05;0.50;;;0.40;;
45836;SDS011;31548;51.420;-0.040;2023-02-02T15:13:19;3.05;;;1.23;;
45836;SDS011;31548;51.420;-0.040;2023-02-02T15:18:31;3.85;;;0.45;;
45836;SDS011;31548;51.420;-0.040;2023-02-02T15:21:06;2.65;;;0.70;;
45836;SDS011;31548;51.420;-0.040;2023-02-02T15:23:43;2.92;;;0.70;;
45836;SDS011;31548;51.420;-0.040;2023-02-02T15:28:48;8.10;;;0.50;;
45836;SDS011;31548;51.420;-0.040;2023-02-02T15:36:41;1.30;;;0.63;;
45836;SDS011;31548;51.420;-0.040;2023-02-02T15:41:53;0.73;;;0.35;;
45836;SDS011;31548;51.420;-0.040;2023-02-02T15:44:42;1.70;;;0.30;;
45836;SDS011;31548;51.420;-0.040;2023-02-02T15:47:11;6.60;;;0.50;;
45836;SDS011;31548;51.420;-0.040;2023-02-02T15:52:14;4.25;;;0.32;;
45836;SDS011;31548;51.420;-0.040;2023-02-02T15:54:49;1.92;;;0.35;;
45836;SDS011;31548;51.420;-0.040;2023-02-02T15:57:22;0.55;;;0.30;;
45836;SDS011;31548;51.420;-0.040;2023-02-02T15:59:53;3.08;;;0.30;;
45836;SDS011;31548;51.420;-0.040;2023-02-02T16:02:28;2.13;;;0.40;;
45836;SDS011;31548;51.420;-0.040;2023-02-02T16:05:06;1.95;;;0.40;;
45836;SDS011;31548;51.420;-0.040;2023-02-02T16:10:32;1.23;;;0.30;;
45836;SDS011;31548;51.420;-0.040;2023-02-02T16:13:01;3.53;;;0.50;;
45836;SDS011;31548;51.420;-0.040;2023-02-02T16:15:29;2.40;;;0.40;;
45836;SDS011;31548;51.420;-0.040;2023-02-02T16:18:03;4.20;;;0.35;;
45836;SDS011;31548;51.420;-0.040;2023-02-02T16:20:33;3.58;;;0.50;;
45836;SDS011;31548;51.420;-0.040;2023-02-02T16:23:02;2.40;;;0.40;;
45836;SDS011;31548;51.420;-0.040;2023-02-02T16:25:32;3.63;;;0.50;;
45836;SDS011;31548;51.420;-0.040;2023-02-02T16:28:04;2.58;;;0.40;;
45836;SDS011;31548;51.420;-0.040;2023-02-02T16:30:37;6.28;;;0.35;;
45836;SDS011;31548;51.420;-0.040;2023-02-02T16:36:01;0.85;;;0.35;;
45836;SDS011;31548;51.420;-0.040;2023-02-02T16:38:50;2.83;;;0.55;;
45836;SDS011;31548;51.420;-0.040;2023-02-02T16:43:53;3.42;;;0.47;;
45836;SDS011;31548;51.420;-0.040;2023-02-02T16:49:14;3.63;;;0.60;;
45836;SDS011;31548;51.420;-0.040;2023-02-02T16:52:06;5.35;;;0.40;;
45836;SDS011;31548;51.420;-0.040;2023-02-02T16:54:33;1.08;;;0.40;;
45836;SDS011;31548;51.420;-0.040;2023-02-02T16:57:02;0.40;;;0.30;;
45836;SDS011;31548;51.420;-0.040;2023-02-02T16:59:32;1.88;;;0.50;;
45836;SDS011;31548;51.420;-0.040;2023-02-02T17:02:04;0.98;;;0.40;;
45836;SDS011;31548;51.420;-0.040;2023-02-02T17:04:55;4.10;;;0.60;;
45836;SDS011;31548;51.420;-0.040;2023-02-02T17:07:28;3.35;;;0.60;;
45836;SDS011;31548;51.420;-0.040;2023-02-02T17:12:57;1.67;;;0.43;;
45836;SDS011;31548;51.420;-0.040;2023-02-02T17:18:00;2.55;;;0.93;;
45836;SDS011;31548;51.420;-0.040;2023-02-02T17:20:27;2.78;;;0.60;;
45836;SDS011;31548;51.420;-0.040;2023-02-02T17:23:00;4.53;;;0.52;;
45836;SDS011;31548;51.420;-0.040;2023-02-02T17:25:39;3.53;;;0.43;;
45836;SDS011;31548;51.420;-0.040;2023-02-02T17:28:09;0.85;;;0.45;;
45836;SDS011;31548;51.420;-0.040;2023-02-02T17:30:39;1.88;;;0.40;;
45836;SDS011;31548;51.420;-0.040;2023-02-02T17:33:09;2.65;;;0.55;;
45836;SDS011;31548;51.420;-0.040;2023-02-02T17:35:44;3.22;;;0.60;;
45836;SDS011;31548;51.420;-0.040;2023-02-02T17:38:21;1.95;;;0.38;;
45836;SDS011;31548;51.420;-0.040;2023-02-02T17:40:49;3.42;;;0.30;;
45836;SDS011;31548;51.420;-0.040;2023-02-02T17:43:18;2.25;;;0.57;;
45836;SDS011;31548;51.420;-0.040;2023-02-02T17:45:45;2.08;;;0.60;;
45836;SDS011;31548;51.420;-0.040;2023-02-02T17:48:13;3.67;;;0.40;;
45836;SDS011;31548;51.420;-0.040;2023-02-02T17:50:40;1.90;;;0.38;;
45836;SDS011;31548;51.420;-0.040;2023-02-02T17:53:09;2.33;;;0.50;;
45836;SDS011;31548;51.420;-0.040;2023-02-02T17:55:39;3.33;;;0.57;;
45836;SDS011;31548;51.420;-0.040;2023-02-02T17:58:08;5.00;;;0.50;;
45836;SDS011;31548;51.420;-0.040;2023-02-02T18:00:39;1.80;;;0.55;;
45836;SDS011;31548;51.420;-0.040;2023-02-02T18:03:09;3.45;;;0.45;;
45836;SDS011;31548;51.420;-0.040;2023-02-02T18:05:45;3.85;;;0.43;;
45836;SDS011;31548;51.420;-0.040;2023-02-02T18:08:13;5.45;;;0.30;;
45836;SDS011;31548;51.420;-0.040;2023-02-02T18:10:40;0.30;;;0.30;;
45836;SDS011;31548;51.420;-0.040;2023-02-02T18:13:15;1.42;;;0.43;;
45836;SDS011;31548;51.420;-0.040;2023-02-02T18:15:44;4.88;;;0.40;;